sensor_id;sensor_type;location;lat;lon;timestamp;pressure;altitude;pressure_sealevel;temperature;humidity
24306;BME280;12423;48.768;8.850;2022-10-30T00:00:32;97379.94;;;13.82;100.00
24306;BME280;12423;48.768;8.850;2022-10-30T00:02:34;97386.63;;;13.78;100.00
24306;BME280;12423;48.768;8.850;2022-10-30T00:04:35;97377.59;;;13.79;100.00
24306;BME280;12423;48.768;8.850;2022-10-30T00:06:36;97378.28;;;13.81;100.00
24306;BME280;12423;48.768;8.850;2022-10-30T00:08:36;97372.78;;;13.83;100.00
24306;BME280;12423;48.768;8.850;2022-10-30T00:10:38;97371.63;;;13.86;100.00
24306;BME280;12423;48.768;8.850;2022-10-30T00:12:40;97379.66;;;13.86;100.00
24306;BME280;12423;48.768;8.850;2022-10-30T00:14:41;97376.00;;;13.87;100.00
24306;BME280;12423;48.768;8.850;2022-10-30T00:16:42;97380.41;;;13.88;100.00
24306;BME280;12423;48.768;8.850;2022-10-30T00:18:43;97381.22;;;13.88;100.00
24306;BME280;12423;48.768;8.850;2022-10-30T00:20:44;97379.53;;;13.87;100.00
24306;BME280;12423;48.768;8.850;2022-10-30T00:22:44;97382.09;;;13.79;100.00
24306;BME280;12423;48.768;8.850;2022-10-30T00:24:45;97381.81;;;13.72;100.00
24306;BME280;12423;48.768;8.850;2022-10-30T00:26:46;97378.44;;;13.70;100.00
24306;BME280;12423;48.768;8.850;2022-10-30T00:28:49;97385.94;;;13.67;100.00
24306;BME280;12423;48.768;8.850;2022-10-30T00:30:50;97393.69;;;13.70;100.00
24306;BME280;12423;48.768;8.850;2022-10-30T00:32:51;97381.53;;;13.75;100.00
24306;BME280;12423;48.768;8.850;2022-10-30T00:34:52;97379.53;;;13.77;100.00
24306;BME280;12423;48.768;8.850;2022-10-30T00:36:53;97377.19;;;13.74;100.00
24306;BME280;12423;48.768;8.850;2022-10-30T00:38:54;97375.47;;;13.73;100.00
24306;BME280;12423;48.768;8.850;2022-10-30T00:40:55;97383.78;;;13.90;100.00
24306;BME280;12423;48.768;8.850;2022-10-30T00:42:57;97387.59;;;13.87;100.00
24306;BME280;12423;48.768;8.850;2022-10-30T00:44:58;97385.94;;;13.76;100.00
24306;BME280;12423;48.768;8.850;2022-10-30T00:47:02;97384.94;;;13.68;100.00
24306;BME280;12423;48.768;8.850;2022-10-30T00:49:15;97391.31;;;13.67;100.00
24306;BME280;12423;48.768;8.850;2022-10-30T00:51:16;97384.09;;;13.67;100.00
24306;BME280;12423;48.768;8.850;2022-10-30T00:53:19;97382.69;;;13.63;100.00
24306;BME280;12423;48.768;8.850;2022-10-30T00:55:49;97384.94;;;13.68;100.00
24306;BME280;12423;48.768;8.850;2022-10-30T00:57:51;97373.91;;;13.61;100.00
24306;BME280;12423;48.768;8.850;2022-10-30T00:59:53;97378.72;;;13.57;100.00
24306;BME280;12423;48.768;8.850;2022-10-30T01:01:54;97374.91;;;13.60;100.00
24306;BME280;12423;48.768;8.850;2022-10-30T01:03:58;97368.56;;;13.51;100.00
24306;BME280;12423;48.768;8.850;2022-10-30T01:06:03;97366.47;;;13.45;100.00
24306;BME280;12423;48.768;8.850;2022-10-30T01:08:06;97374.22;;;13.38;100.00
24306;BME280;12423;48.768;8.850;2022-10-30T01:10:07;97361.66;;;13.49;100.00
24306;BME280;12423;48.768;8.850;2022-10-30T01:12:09;97362.06;;;13.54;100.00
24306;BME280;12423;48.768;8.850;2022-10-30T01:14:15;97356.13;;;13.60;100.00
24306;BME280;12423;48.768;8.850;2022-10-30T01:21:17;97357.25;;;13.48;100.00
24306;BME280;12423;48.768;8.850;2022-10-30T01:23:34;97355.88;;;13.43;100.00
24306;BME280;12423;48.768;8.850;2022-10-30T01:25:59;97363.91;;;13.43;100.00
24306;BME280;12423;48.768;8.850;2022-10-30T01:28:23;97358.28;;;13.47;100.00
24306;BME280;12423;48.768;8.850;2022-10-30T01:37:43;97346.25;;;13.41;100.00
24306;BME280;12423;48.768;8.850;2022-10-30T01:39:45;97346.13;;;13.42;100.00
24306;BME280;12423;48.768;8.850;2022-10-30T01:41:46;97346.13;;;13.42;100.00
24306;BME280;12423;48.768;8.850;2022-10-30T01:43:53;97341.91;;;13.40;100.00
24306;BME280;12423;48.768;8.850;2022-10-30T01:53:00;97343.44;;;13.42;100.00
24306;BME280;12423;48.768;8.850;2022-10-30T01:57:33;97336.94;;;13.45;100.00
24306;BME280;12423;48.768;8.850;2022-10-30T01:59:53;97337.50;;;13.49;100.00
24306;BME280;12423;48.768;8.850;2022-10-30T02:01:57;97344.31;;;13.33;100.00
24306;BME280;12423;48.768;8.850;2022-10-30T02:03:58;97338.63;;;13.17;100.00
24306;BME280;12423;48.768;8.850;2022-10-30T02:05:59;97342.84;;;13.09;100.00
24306;BME280;12423;48.768;8.850;2022-10-30T02:08:01;97335.38;;;13.03;100.00
24306;BME280;12423;48.768;8.850;2022-10-30T02:10:03;97332.53;;;13.05;100.00
24306;BME280;12423;48.768;8.850;2022-10-30T02:12:06;97332.97;;;13.10;100.00
24306;BME280;12423;48.768;8.850;2022-10-30T02:14:08;97335.22;;;13.15;100.00
24306;BME280;12423;48.768;8.850;2022-10-30T02:16:10;97335.94;;;13.17;100.00
24306;BME280;12423;48.768;8.850;2022-10-30T02:18:11;97334.38;;;13.24;100.00
24306;BME280;12423;48.768;8.850;2022-10-30T02:20:16;97330.00;;;13.23;100.00
24306;BME280;12423;48.768;8.850;2022-10-30T02:22:17;97332.66;;;13.23;100.00
24306;BME280;12423;48.768;8.850;2022-10-30T02:24:19;97335.63;;;13.20;100.00
24306;BME280;12423;48.768;8.850;2022-10-30T02:26:20;97325.63;;;13.22;100.00
24306;BME280;12423;48.768;8.850;2022-10-30T02:28:21;97323.09;;;13.20;100.00
24306;BME280;12423;48.768;8.850;2022-10-30T02:30:22;97323.50;;;13.16;100.00
24306;BME280;12423;48.768;8.850;2022-10-30T02:32:23;97329.84;;;13.15;100.00
24306;BME280;12423;48.768;8.850;2022-10-30T02:34:23;97325.22;;;13.17;100.00
24306;BME280;12423;48.768;8.850;2022-10-30T02:36:24;97328.44;;;13.11;100.00
24306;BME280;12423;48.768;8.850;2022-10-30T02:38:27;97325.22;;;13.07;100.00
24306;BME280;12423;48.768;8.850;2022-10-30T02:40:28;97323.22;;;12.99;100.00
24306;BME280;12423;48.768;8.850;2022-10-30T02:42:30;97324.50;;;12.95;100.00
24306;BME280;12423;48.768;8.850;2022-10-30T02:44:31;97327.47;;;12.92;100.00
24306;BME280;12423;48.768;8.850;2022-10-30T02:46:33;97318.00;;;12.88;100.00
24306;BME280;12423;48.768;8.850;2022-10-30T02:48:34;97321.94;;;12.84;100.00
24306;BME280;12423;48.768;8.850;2022-10-30T02:50:35;97320.50;;;12.80;100.00
24306;BME280;12423;48.768;8.850;2022-10-30T02:52:37;97310.94;;;12.77;100.00
24306;BME280;12423;48.768;8.850;2022-10-30T02:54:38;97323.63;;;12.85;100.00
24306;BME280;12423;48.768;8.850;2022-10-30T02:56:39;97327.84;;;12.78;100.00
24306;BME280;12423;48.768;8.850;2022-10-30T02:58:41;97328.41;;;12.81;100.00
24306;BME280;12423;48.768;8.850;2022-10-30T03:00:43;97331.81;;;12.83;100.00
24306;BME280;12423;48.768;8.850;2022-10-30T03:02:44;97326.44;;;12.83;100.00
24306;BME280;12423;48.768;8.850;2022-10-30T03:04:45;97332.94;;;12.81;100.00
24306;BME280;12423;48.768;8.850;2022-10-30T03:06:46;97333.34;;;12.76;100.00
24306;BME280;12423;48.768;8.850;2022-10-30T03:08:47;97328.00;;;12.76;100.00
24306;BME280;12423;48.768;8.850;2022-10-30T03:10:48;97319.38;;;12.72;100.00
24306;BME280;12423;48.768;8.850;2022-10-30T03:12:49;97327.53;;;12.61;100.00
24306;BME280;12423;48.768;8.850;2022-10-30T03:14:50;97323.44;;;12.57;100.00
24306;BME280;12423;48.768;8.850;2022-10-30T03:16:51;97324.41;;;12.46;100.00
24306;BME280;12423;48.768;8.850;2022-10-30T03:18:55;97335.94;;;12.37;100.00
24306;BME280;12423;48.768;8.850;2022-10-30T03:20:57;97332.41;;;12.37;100.00
24306;BME280;12423;48.768;8.850;2022-10-30T03:22:59;97338.47;;;12.39;100.00
24306;BME280;12423;48.768;8.850;2022-10-30T03:25:01;97331.44;;;12.38;100.00
24306;BME280;12423;48.768;8.850;2022-10-30T03:27:02;97337.06;;;12.34;100.00
24306;BME280;12423;48.768;8.850;2022-10-30T03:29:03;97331.28;;;12.29;100.00
24306;BME280;12423;48.768;8.850;2022-10-30T03:31:06;97337.34;;;12.31;100.00
24306;BME280;12423;48.768;8.850;2022-10-30T03:33:07;97331.56;;;12.36;100.00
24306;BME280;12423;48.768;8.850;2022-10-30T03:35:09;97330.31;;;12.40;100.00
24306;BME280;12423;48.768;8.850;2022-10-30T03:37:10;97335.41;;;12.43;100.00
24306;BME280;12423;48.768;8.850;2022-10-30T03:39:11;97336.53;;;12.41;100.00
24306;BME280;12423;48.768;8.850;2022-10-30T03:41:12;97331.72;;;12.34;100.00
24306;BME280;12423;48.768;8.850;2022-10-30T03:43:13;97337.91;;;12.35;100.00
24306;BME280;12423;48.768;8.850;2022-10-30T03:45:14;97344.09;;;12.35;100.00
24306;BME280;12423;48.768;8.850;2022-10-30T03:47:16;97336.38;;;12.32;100.00
24306;BME280;12423;48.768;8.850;2022-10-30T03:49:19;97340.84;;;12.32;100.00
24306;BME280;12423;48.768;8.850;2022-10-30T03:51:20;97333.97;;;12.29;100.00
24306;BME280;12423;48.768;8.850;2022-10-30T03:53:22;97346.63;;;12.27;100.00
24306;BME280;12423;48.768;8.850;2022-10-30T03:55:24;97342.22;;;12.16;100.00
24306;BME280;12423;48.768;8.850;2022-10-30T03:57:25;97336.03;;;12.16;100.00
24306;BME280;12423;48.768;8.850;2022-10-30T03:59:49;97341.50;;;12.14;100.00
24306;BME280;12423;48.768;8.850;2022-10-30T04:02:09;97341.22;;;12.08;100.00
24306;BME280;12423;48.768;8.850;2022-10-30T04:04:10;97339.22;;;12.10;100.00
24306;BME280;12423;48.768;8.850;2022-10-30T04:06:11;97343.59;;;12.11;100.00
24306;BME280;12423;48.768;8.850;2022-10-30T04:08:12;97347.78;;;12.04;100.00
24306;BME280;12423;48.768;8.850;2022-10-30T04:10:14;97338.34;;;12.00;100.00
24306;BME280;12423;48.768;8.850;2022-10-30T04:12:15;97342.69;;;12.01;100.00
24306;BME280;12423;48.768;8.850;2022-10-30T04:14:16;97347.22;;;12.00;100.00
24306;BME280;12423;48.768;8.850;2022-10-30T04:16:17;97345.50;;;11.99;100.00
24306;BME280;12423;48.768;8.850;2022-10-30T04:18:19;97344.66;;;11.98;100.00
24306;BME280;12423;48.768;8.850;2022-10-30T04:20:22;97345.38;;;12.01;100.00
24306;BME280;12423;48.768;8.850;2022-10-30T04:22:23;97353.28;;;12.02;100.00
24306;BME280;12423;48.768;8.850;2022-10-30T04:24:24;97347.91;;;12.02;100.00
24306;BME280;12423;48.768;8.850;2022-10-30T04:26:29;97342.75;;;11.89;100.00
24306;BME280;12423;48.768;8.850;2022-10-30T04:28:29;97347.88;;;11.92;100.00
24306;BME280;12423;48.768;8.850;2022-10-30T04:30:31;97347.22;;;11.79;100.00
24306;BME280;12423;48.768;8.850;2022-10-30T04:32:44;97352.69;;;11.77;100.00
24306;BME280;12423;48.768;8.850;2022-10-30T04:34:45;97343.00;;;11.76;100.00
24306;BME280;12423;48.768;8.850;2022-10-30T04:36:47;97337.50;;;11.78;100.00
24306;BME280;12423;48.768;8.850;2022-10-30T04:38:48;97344.91;;;11.74;100.00
24306;BME280;12423;48.768;8.850;2022-10-30T04:40:49;97342.38;;;11.73;100.00
24306;BME280;12423;48.768;8.850;2022-10-30T04:42:50;97346.06;;;11.72;100.00
24306;BME280;12423;48.768;8.850;2022-10-30T04:44:51;97344.03;;;11.64;100.00
24306;BME280;12423;48.768;8.850;2022-10-30T04:46:52;97343.91;;;11.66;100.00
24306;BME280;12423;48.768;8.850;2022-10-30T04:48:52;97344.28;;;11.61;100.00
24306;BME280;12423;48.768;8.850;2022-10-30T04:50:53;97343.13;;;11.54;100.00
24306;BME280;12423;48.768;8.850;2022-10-30T04:53:03;97344.34;;;11.50;100.00
24306;BME280;12423;48.768;8.850;2022-10-30T04:55:05;97342.41;;;11.52;100.00
24306;BME280;12423;48.768;8.850;2022-10-30T04:57:07;97343.63;;;11.48;100.00
24306;BME280;12423;48.768;8.850;2022-10-30T04:59:09;97348.59;;;11.52;100.00
24306;BME280;12423;48.768;8.850;2022-10-30T05:01:10;97347.63;;;11.53;100.00
24306;BME280;12423;48.768;8.850;2022-10-30T05:03:16;97348.72;;;11.51;100.00
24306;BME280;12423;48.768;8.850;2022-10-30T05:05:18;97348.72;;;11.51;100.00
24306;BME280;12423;48.768;8.850;2022-10-30T05:07:18;97338.88;;;11.51;100.00
24306;BME280;12423;48.768;8.850;2022-10-30T05:09:20;97337.84;;;11.42;100.00
24306;BME280;12423;48.768;8.850;2022-10-30T05:11:20;97339.34;;;11.35;100.00
24306;BME280;12423;48.768;8.850;2022-10-30T05:13:21;97349.41;;;11.32;100.00
24306;BME280;12423;48.768;8.850;2022-10-30T05:15:22;97342.13;;;11.34;100.00
24306;BME280;12423;48.768;8.850;2022-10-30T05:17:24;97339.59;;;11.32;100.00
24306;BME280;12423;48.768;8.850;2022-10-30T05:19:25;97346.28;;;11.27;100.00
24306;BME280;12423;48.768;8.850;2022-10-30T05:21:29;97329.66;;;11.23;100.00
24306;BME280;12423;48.768;8.850;2022-10-30T05:23:29;97336.97;;;11.21;100.00
24306;BME280;12423;48.768;8.850;2022-10-30T05:25:30;97336.63;;;11.14;100.00
24306;BME280;12423;48.768;8.850;2022-10-30T05:27:34;97337.16;;;11.08;100.00
24306;BME280;12423;48.768;8.850;2022-10-30T05:29:35;97332.91;;;11.05;100.00
24306;BME280;12423;48.768;8.850;2022-10-30T05:31:36;97338.13;;;11.07;100.00
24306;BME280;12423;48.768;8.850;2022-10-30T05:34:00;97334.47;;;11.08;100.00
24306;BME280;12423;48.768;8.850;2022-10-30T05:36:01;97338.13;;;11.07;100.00
24306;BME280;12423;48.768;8.850;2022-10-30T05:38:02;97342.50;;;11.08;100.00
24306;BME280;12423;48.768;8.850;2022-10-30T05:40:03;97345.88;;;11.10;100.00
24306;BME280;12423;48.768;8.850;2022-10-30T05:42:05;97341.66;;;11.07;100.00
24306;BME280;12423;48.768;8.850;2022-10-30T05:44:14;97347.25;;;11.04;100.00
24306;BME280;12423;48.768;8.850;2022-10-30T05:46:18;97344.44;;;11.06;100.00
24306;BME280;12423;48.768;8.850;2022-10-30T05:48:20;97340.44;;;11.00;100.00
24306;BME280;12423;48.768;8.850;2022-10-30T05:50:21;97339.34;;;11.03;100.00
24306;BME280;12423;48.768;8.850;2022-10-30T05:52:36;97345.53;;;11.03;100.00
24306;BME280;12423;48.768;8.850;2022-10-30T05:54:37;97338.06;;;10.97;100.00
24306;BME280;12423;48.768;8.850;2022-10-30T05:56:43;97348.78;;;10.86;100.00
24306;BME280;12423;48.768;8.850;2022-10-30T05:58:47;97343.09;;;10.79;100.00
24306;BME280;12423;48.768;8.850;2022-10-30T06:00:47;97340.88;;;10.84;100.00
24306;BME280;12423;48.768;8.850;2022-10-30T06:03:00;97342.84;;;10.82;100.00
24306;BME280;12423;48.768;8.850;2022-10-30T06:05:03;97348.56;;;10.78;100.00
24306;BME280;12423;48.768;8.850;2022-10-30T06:07:04;97342.84;;;10.82;100.00
24306;BME280;12423;48.768;8.850;2022-10-30T06:09:05;97332.78;;;10.75;100.00
24306;BME280;12423;48.768;8.850;2022-10-30T06:11:30;97349.41;;;10.78;100.00
24306;BME280;12423;48.768;8.850;2022-10-30T06:13:33;97343.59;;;10.73;100.00
24306;BME280;12423;48.768;8.850;2022-10-30T06:15:38;97339.69;;;10.77;100.00
24306;BME280;12423;48.768;8.850;2022-10-30T06:17:38;97347.22;;;10.72;100.00
24306;BME280;12423;48.768;8.850;2022-10-30T06:19:54;97346.97;;;10.75;100.00
24306;BME280;12423;48.768;8.850;2022-10-30T06:22:14;97346.00;;;10.76;100.00
24306;BME280;12423;48.768;8.850;2022-10-30T06:24:21;97346.97;;;10.75;100.00
24306;BME280;12423;48.768;8.850;2022-10-30T06:26:47;97346.97;;;10.75;100.00
24306;BME280;12423;48.768;8.850;2022-10-30T06:28:49;97340.91;;;10.73;100.00
24306;BME280;12423;48.768;8.850;2022-10-30T06:30:52;97348.56;;;10.78;100.00
24306;BME280;12423;48.768;8.850;2022-10-30T06:32:59;97344.91;;;10.79;100.00
24306;BME280;12423;48.768;8.850;2022-10-30T06:35:00;97361.06;;;10.77;100.00
24306;BME280;12423;48.768;8.850;2022-10-30T06:37:01;97355.97;;;10.74;100.00
24306;BME280;12423;48.768;8.850;2022-10-30T06:39:02;97341.25;;;10.80;100.00
24306;BME280;12423;48.768;8.850;2022-10-30T06:41:12;97346.22;;;10.84;100.00
24306;BME280;12423;48.768;8.850;2022-10-30T06:43:31;97350.75;;;10.84;100.00
24306;BME280;12423;48.768;8.850;2022-10-30T06:45:37;97347.91;;;10.85;100.00
24306;BME280;12423;48.768;8.850;2022-10-30T06:47:38;97354.00;;;10.87;100.00
24306;BME280;12423;48.768;8.850;2022-10-30T06:49:38;97351.06;;;10.91;100.00
24306;BME280;12423;48.768;8.850;2022-10-30T06:51:39;97359.94;;;10.91;100.00
24306;BME280;12423;48.768;8.850;2022-10-30T06:53:40;97350.56;;;10.97;100.00
24306;BME280;12423;48.768;8.850;2022-10-30T06:56:10;97348.88;;;10.96;100.00
24306;BME280;12423;48.768;8.850;2022-10-30T06:58:35;97349.09;;;11.04;100.00
24306;BME280;12423;48.768;8.850;2022-10-30T07:00:42;97349.59;;;10.98;100.00
24306;BME280;12423;48.768;8.850;2022-10-30T07:03:01;97356.34;;;11.02;100.00
24306;BME280;12423;48.768;8.850;2022-10-30T07:05:04;97354.56;;;11.02;100.00
24306;BME280;12423;48.768;8.850;2022-10-30T07:07:05;97354.78;;;11.11;100.00
24306;BME280;12423;48.768;8.850;2022-10-30T07:09:06;97357.31;;;11.12;100.00
24306;BME280;12423;48.768;8.850;2022-10-30T07:11:07;97354.38;;;11.15;100.00
24306;BME280;12423;48.768;8.850;2022-10-30T07:13:08;97359.75;;;11.15;100.00
24306;BME280;12423;48.768;8.850;2022-10-30T07:15:27;97362.13;;;11.18;100.00
24306;BME280;12423;48.768;8.850;2022-10-30T07:17:58;97362.59;;;11.23;100.00
24306;BME280;12423;48.768;8.850;2022-10-30T07:19:59;97360.53;;;11.27;100.00
24306;BME280;12423;48.768;8.850;2022-10-30T07:22:00;97355.06;;;11.29;100.00
24306;BME280;12423;48.768;8.850;2022-10-30T07:24:02;97361.38;;;11.28;100.00
24306;BME280;12423;48.768;8.850;2022-10-30T07:26:07;97358.31;;;11.32;100.00
24306;BME280;12423;48.768;8.850;2022-10-30T07:28:11;97366.94;;;11.36;100.00
24306;BME280;12423;48.768;8.850;2022-10-30T07:30:17;97365.97;;;11.37;100.00
24306;BME280;12423;48.768;8.850;2022-10-30T07:32:40;97369.53;;;11.47;100.00
24306;BME280;12423;48.768;8.850;2022-10-30T07:34:48;97361.66;;;11.46;100.00
24306;BME280;12423;48.768;8.850;2022-10-30T07:37:01;97365.09;;;11.57;100.00
24306;BME280;12423;48.768;8.850;2022-10-30T07:39:18;97362.63;;;11.66;100.00
24306;BME280;12423;48.768;8.850;2022-10-30T07:41:39;97361.31;;;11.81;100.00
24306;BME280;12423;48.768;8.850;2022-10-30T07:44:06;97370.28;;;11.91;100.00
24306;BME280;12423;48.768;8.850;2022-10-30T07:46:25;97369.88;;;11.96;100.00
24306;BME280;12423;48.768;8.850;2022-10-30T07:48:44;97365.44;;;12.06;100.00
24306;BME280;12423;48.768;8.850;2022-10-30T07:51:15;97364.88;;;12.12;100.00
24306;BME280;12423;48.768;8.850;2022-10-30T07:53:16;97365.31;;;12.17;100.00
24306;BME280;12423;48.768;8.850;2022-10-30T07:55:21;97368.47;;;12.23;100.00
24306;BME280;12423;48.768;8.850;2022-10-30T07:57:22;97366.50;;;12.25;100.00
24306;BME280;12423;48.768;8.850;2022-10-30T07:59:41;97366.09;;;12.29;100.00
24306;BME280;12423;48.768;8.850;2022-10-30T08:01:54;97364.69;;;12.35;100.00
24306;BME280;12423;48.768;8.850;2022-10-30T08:04:04;97362.47;;;12.40;100.00
24306;BME280;12423;48.768;8.850;2022-10-30T08:06:05;97367.28;;;12.46;100.00
24306;BME280;12423;48.768;8.850;2022-10-30T08:08:08;97370.97;;;12.55;100.00
24306;BME280;12423;48.768;8.850;2022-10-30T08:10:09;97367.22;;;12.67;100.00
24306;BME280;12423;48.768;8.850;2022-10-30T08:12:10;97369.31;;;12.73;100.00
24306;BME280;12423;48.768;8.850;2022-10-30T08:14:11;97366.63;;;12.73;100.00
24306;BME280;12423;48.768;8.850;2022-10-30T08:16:11;97368.50;;;12.83;100.00
24306;BME280;12423;48.768;8.850;2022-10-30T08:18:13;97364.88;;;12.94;100.00
24306;BME280;12423;48.768;8.850;2022-10-30T08:20:17;97369.25;;;13.14;100.00
24306;BME280;12423;48.768;8.850;2022-10-30T08:22:20;97363.88;;;13.24;100.00
24306;BME280;12423;48.768;8.850;2022-10-30T08:24:30;97372.50;;;13.27;100.00
24306;BME280;12423;48.768;8.850;2022-10-30T08:26:33;97364.31;;;13.29;100.00
24306;BME280;12423;48.768;8.850;2022-10-30T08:28:35;97367.44;;;13.34;100.00
24306;BME280;12423;48.768;8.850;2022-10-30T08:30:38;97368.28;;;13.44;100.00
24306;BME280;12423;48.768;8.850;2022-10-30T08:32:42;97365.88;;;13.51;100.00
24306;BME280;12423;48.768;8.850;2022-10-30T08:35:01;97353.59;;;13.58;100.00
24306;BME280;12423;48.768;8.850;2022-10-30T08:37:03;97360.94;;;13.66;100.00
24306;BME280;12423;48.768;8.850;2022-10-30T08:39:05;97357.38;;;13.75;100.00
24306;BME280;12423;48.768;8.850;2022-10-30T08:41:26;97357.91;;;13.89;100.00
24306;BME280;12423;48.768;8.850;2022-10-30T08:43:27;97363.38;;;13.97;100.00
24306;BME280;12423;48.768;8.850;2022-10-30T08:45:29;97354.34;;;13.98;100.00
24306;BME280;12423;48.768;8.850;2022-10-30T08:47:41;97358.13;;;14.05;100.00
24306;BME280;12423;48.768;8.850;2022-10-30T08:49:41;97358.09;;;14.15;100.00
24306;BME280;12423;48.768;8.850;2022-10-30T08:51:43;97350.00;;;14.25;100.00
24306;BME280;12423;48.768;8.850;2022-10-30T08:53:46;97354.50;;;14.34;100.00
24306;BME280;12423;48.768;8.850;2022-10-30T08:55:49;97354.78;;;14.41;100.00
24306;BME280;12423;48.768;8.850;2022-10-30T08:57:58;97358.25;;;14.51;100.00
24306;BME280;12423;48.768;8.850;2022-10-30T08:59:59;97346.75;;;14.59;100.00
24306;BME280;12423;48.768;8.850;2022-10-30T09:02:28;97352.25;;;14.67;100.00
24306;BME280;12423;48.768;8.850;2022-10-30T09:05:01;97354.03;;;14.76;100.00
24306;BME280;12423;48.768;8.850;2022-10-30T09:07:24;97359.34;;;14.86;100.00
24306;BME280;12423;48.768;8.850;2022-10-30T09:09:51;97352.94;;;14.97;100.00
24306;BME280;12423;48.768;8.850;2022-10-30T09:11:52;97344.78;;;15.06;100.00
24306;BME280;12423;48.768;8.850;2022-10-30T09:13:53;97342.72;;;15.18;100.00
24306;BME280;12423;48.768;8.850;2022-10-30T09:15:57;97341.75;;;15.27;100.00
24306;BME280;12423;48.768;8.850;2022-10-30T09:18:02;97350.28;;;15.41;100.00
24306;BME280;12423;48.768;8.850;2022-10-30T09:20:03;97347.00;;;15.47;100.00
24306;BME280;12423;48.768;8.850;2022-10-30T09:22:09;97344.22;;;15.57;100.00
24306;BME280;12423;48.768;8.850;2022-10-30T09:24:13;97343.13;;;15.68;100.00
24306;BME280;12423;48.768;8.850;2022-10-30T09:26:34;97343.06;;;15.77;100.00
24306;BME280;12423;48.768;8.850;2022-10-30T09:28:42;97349.72;;;15.91;100.00
24306;BME280;12423;48.768;8.850;2022-10-30T09:31:18;97347.44;;;16.05;100.00
24306;BME280;12423;48.768;8.850;2022-10-30T09:33:19;97347.16;;;16.16;100.00
24306;BME280;12423;48.768;8.850;2022-10-30T09:35:40;97342.19;;;16.29;100.00
24306;BME280;12423;48.768;8.850;2022-10-30T09:37:40;97349.00;;;16.42;100.00
24306;BME280;12423;48.768;8.850;2022-10-30T09:39:46;97353.75;;;16.56;100.00
24306;BME280;12423;48.768;8.850;2022-10-30T09:44:18;97351.47;;;16.77;100.00
24306;BME280;12423;48.768;8.850;2022-10-30T09:48:27;97351.22;;;16.97;100.00
24306;BME280;12423;48.768;8.850;2022-10-30T09:50:51;97346.69;;;17.14;100.00
24306;BME280;12423;48.768;8.850;2022-10-30T09:57:13;97348.94;;;17.43;100.00
24306;BME280;12423;48.768;8.850;2022-10-30T09:59:26;97350.31;;;17.56;100.00
24306;BME280;12423;48.768;8.850;2022-10-30T10:01:38;97346.41;;;17.75;100.00
24306;BME280;12423;48.768;8.850;2022-10-30T10:06:31;97342.84;;;18.07;100.00
24306;BME280;12423;48.768;8.850;2022-10-30T10:08:49;97350.41;;;18.28;100.00
24306;BME280;12423;48.768;8.850;2022-10-30T10:11:24;97353.59;;;18.40;100.00
24306;BME280;12423;48.768;8.850;2022-10-30T10:13:34;97354.88;;;18.52;100.00
24306;BME280;12423;48.768;8.850;2022-10-30T10:15:50;97345.72;;;18.62;100.00
24306;BME280;12423;48.768;8.850;2022-10-30T10:17:53;97346.00;;;18.75;100.00
24306;BME280;12423;48.768;8.850;2022-10-30T10:19:56;97348.00;;;18.89;100.00
24306;BME280;12423;48.768;8.850;2022-10-30T10:22:01;97349.94;;;19.04;100.00
24306;BME280;12423;48.768;8.850;2022-10-30T10:24:02;97342.06;;;19.17;100.00
24306;BME280;12423;48.768;8.850;2022-10-30T10:28:41;97343.28;;;19.38;100.00
24306;BME280;12423;48.768;8.850;2022-10-30T10:30:49;97343.47;;;19.59;100.00
24306;BME280;12423;48.768;8.850;2022-10-30T10:37:21;97337.44;;;20.10;100.00
24306;BME280;12423;48.768;8.850;2022-10-30T10:39:39;97335.38;;;20.27;100.00
24306;BME280;12423;48.768;8.850;2022-10-30T10:48:15;97334.06;;;20.83;100.00
24306;BME280;12423;48.768;8.850;2022-10-30T10:52:18;97324.03;;;21.20;100.00
24306;BME280;12423;48.768;8.850;2022-10-30T10:54:22;97315.69;;;21.43;100.00
24306;BME280;12423;48.768;8.850;2022-10-30T10:56:26;97328.34;;;21.72;100.00
24306;BME280;12423;48.768;8.850;2022-10-30T10:58:37;97323.78;;;22.07;97.78
24306;BME280;12423;48.768;8.850;2022-10-30T11:00:38;97320.34;;;22.55;92.25
24306;BME280;12423;48.768;8.850;2022-10-30T11:02:42;97317.25;;;23.07;89.47
24306;BME280;12423;48.768;8.850;2022-10-30T11:04:45;97318.03;;;23.96;87.07
24306;BME280;12423;48.768;8.850;2022-10-30T11:06:50;97311.94;;;25.31;79.38
24306;BME280;12423;48.768;8.850;2022-10-30T11:08:51;97311.09;;;26.56;71.76
24306;BME280;12423;48.768;8.850;2022-10-30T11:10:55;97305.03;;;27.70;64.60
24306;BME280;12423;48.768;8.850;2022-10-30T11:12:56;97311.09;;;29.02;57.15
24306;BME280;12423;48.768;8.850;2022-10-30T11:15:00;97299.03;;;29.32;57.37
24306;BME280;12423;48.768;8.850;2022-10-30T11:17:18;97304.25;;;29.63;57.05
24306;BME280;12423;48.768;8.850;2022-10-30T11:19:20;97306.06;;;30.20;53.31
24306;BME280;12423;48.768;8.850;2022-10-30T11:21:21;97299.03;;;30.90;50.10
24306;BME280;12423;48.768;8.850;2022-10-30T11:23:29;97299.78;;;31.02;47.05
24306;BME280;12423;48.768;8.850;2022-10-30T11:25:33;97299.53;;;31.31;46.57
24306;BME280;12423;48.768;8.850;2022-10-30T11:27:35;97295.66;;;30.83;47.73
24306;BME280;12423;48.768;8.850;2022-10-30T11:29:36;97296.81;;;30.87;47.61
24306;BME280;12423;48.768;8.850;2022-10-30T11:31:38;97294.34;;;30.29;49.26
24306;BME280;12423;48.768;8.850;2022-10-30T11:33:39;97294.81;;;30.60;49.69
24306;BME280;12423;48.768;8.850;2022-10-30T11:35:40;97291.59;;;30.12;50.30
24306;BME280;12423;48.768;8.850;2022-10-30T11:37:42;97289.19;;;30.16;50.85
24306;BME280;12423;48.768;8.850;2022-10-30T11:39:43;97298.81;;;29.97;50.79
24306;BME280;12423;48.768;8.850;2022-10-30T11:43:56;97294.75;;;29.53;55.88
24306;BME280;12423;48.768;8.850;2022-10-30T11:45:57;97298.41;;;29.01;59.55